Airfield :
LOGIN :

Register | Disclaimer

   EN    FR    IT 

 










Legend :    VFR   Marginal VFR   IFR   Intensive IFR   Very Intensive IFR
Visi :
Ceiling :
>= 8 km
>= 3000ft
5 to 8 km
1000 to 3000 ft
1500m to 5 km
500 to 1000 ft
800 to 1500m
200 to 500 ft
< 800m
< 200 ft
Symbols :   Thunderstorms  Fog  Heavy snow  Heavy precipitations  Wind > 20 kt
SIGMETs :     Misc.  Thunderstorms  Icing  Turbulence  Mountain Waves  Volcanic Ashes






- Airport Elevation : 355 ft
- IATA code : VBS


LIPO - Montichiari - Brescia

CURRENT METAR :
  • 041050Z AUTO 06009KT 9999 NCD 32/16 Q1016

EXPIRED METARs :
  • 041020Z AUTO 02006KT 9999 NCD 31/16 Q1016
  • 040950Z AUTO 06006KT 350V080 9999 NCD 31/16 Q1016
  • 040920Z AUTO 04006KT 9999 -RA FEW045/// 30/16 Q1016
  • 040850Z AUTO 03007KT 340V050 9999 FEW130/// 30/15 Q1016

TAF TAF LIPO
Valid from the 04 at 06:00 until the 05 at 06:00 UTC


040500Z 0406/0506 VRB05KT CAVOK
TEMPO 0416/0501 TSRA



MET'MAP, your aeronautical weather chart ! - Copyright ORBIFLY December 2007 - Disclaimer

ORBIFLY MET'MAP TEAM :

Programming & Development : Alexandra Zaïnal
Original concept : Baudouin d'Aumeries
Technical & hardware support : Manuel Goepfert
Assistance : Marc-Olivier Méhu




SOURCES & CREDITS :

   NOAA